Time;durP1;ratioP1;P1;durP2;ratioP2;P2;SDS_P1;SDS_P2;PMS_P1;PMS_P2;Temp;Humidity;BMP_temperature;BMP_pressure;BME280_temperature;BME280_humidity;BME280_pressure;Samples;Min_cycle;Max_cycle;Signal;HPM_P1;HPM_P2
2023/09/26 00:01:08;;;;;;;5.67;3.00;;;;;12.50;101744.00;;;;4922009;29;20240;-73
2023/09/26 00:03:54;;;;;;;4.70;2.90;;;;;12.50;101739.00;;;;4923421;29;20879;-70
2023/09/26 00:06:41;;;;;;;4.60;3.00;;;;;12.40;101719.00;;;;4917624;29;20233;-71
2023/09/26 00:09:27;;;;;;;4.10;3.23;;;;;12.40;101728.00;;;;4927737;28;20323;-70
2023/09/26 00:12:14;;;;;;;4.53;3.03;;;;;12.40;101730.00;;;;4929085;28;20237;-66
2023/09/26 00:15:01;;;;;;;4.57;3.30;;;;;12.40;101731.00;;;;4922831;29;20726;-70
2023/09/26 00:17:48;;;;;;;3.13;2.83;;;;;12.40;101725.00;;;;4921499;29;20308;-71
2023/09/26 00:20:39;;;;;;;4.87;3.33;;;;;12.30;101726.00;;;;4914616;29;20240;-69
2023/09/26 00:23:26;;;;;;;7.47;3.20;;;;;12.30;101727.00;;;;4927293;29;20252;-69
2023/09/26 00:26:12;;;;;;;6.33;3.20;;;;;12.20;101724.00;;;;4922814;29;20617;-71
2023/09/26 00:28:59;;;;;;;3.87;3.27;;;;;12.20;101729.00;;;;4928789;29;20786;-69
2023/09/26 00:31:45;;;;;;;8.10;3.23;;;;;12.20;101738.00;;;;4912502;29;20228;-69
2023/09/26 00:34:32;;;;;;;4.90;3.43;;;;;12.20;101730.00;;;;4911545;29;20232;-69
2023/09/26 00:37:18;;;;;;;5.57;3.53;;;;;12.20;101730.00;;;;4920217;29;20711;-70
2023/09/26 00:40:12;;;;;;;5.00;3.53;;;;;12.20;101728.00;;;;4910030;29;20253;-71
2023/09/26 00:42:59;;;;;;;3.83;3.10;;;;;12.30;101727.00;;;;4916952;29;20277;-64
2023/09/26 00:45:46;;;;;;;5.70;3.23;;;;;12.20;101731.00;;;;4923737;29;20606;-71
2023/09/26 00:48:33;;;;;;;8.00;3.77;;;;;12.20;101738.00;;;;4914560;28;20236;-69
2023/09/26 00:51:20;;;;;;;8.63;4.07;;;;;12.20;101742.00;;;;4929649;28;20331;-70
2023/09/26 00:54:10;;;;;;;5.63;3.97;;;;;12.20;101737.00;;;;4926953;29;20489;-71
2023/09/26 00:56:57;;;;;;;4.97;3.80;;;;;12.20;101735.00;;;;4921361;29;20244;-69
2023/09/26 00:59:44;;;;;;;7.50;3.80;;;;;12.20;101730.00;;;;4923247;29;20357;-70
2023/09/26 01:02:31;;;;;;;7.30;3.77;;;;;12.20;101737.00;;;;4917877;28;20232;-70
2023/09/26 01:05:17;;;;;;;5.30;3.70;;;;;12.20;101726.00;;;;4912858;29;20909;-68
2023/09/26 01:08:07;;;;;;;8.30;3.90;;;;;12.10;101724.00;;;;4918843;29;20237;-70
2023/09/26 01:10:53;;;;;;;4.37;3.47;;;;;12.10;101721.00;;;;4914218;29;20238;-70
2023/09/26 01:13:40;;;;;;;7.70;3.60;;;;;12.00;101710.00;;;;4919810;29;20281;-69
2023/09/26 01:16:26;;;;;;;5.73;3.80;;;;;12.00;101714.00;;;;4926591;29;20236;-70
2023/09/26 01:19:13;;;;;;;8.97;3.60;;;;;12.00;101717.00;;;;4918018;28;20548;-67
2023/09/26 01:21:59;;;;;;;5.37;4.10;;;;;12.00;101714.00;;;;4921834;29;20232;-69
2023/09/26 01:24:47;;;;;;;10.77;3.93;;;;;11.90;101708.00;;;;4919454;29;20282;-69
2023/09/26 01:27:34;;;;;;;5.33;4.23;;;;;11.90;101695.00;;;;4910062;28;20409;-68
2023/09/26 01:30:20;;;;;;;5.93;4.10;;;;;11.90;101696.00;;;;4917673;29;20372;-66
2023/09/26 01:33:11;;;;;;;6.03;4.00;;;;;11.80;101694.00;;;;4915963;29;20315;-72
2023/09/26 01:35:57;;;;;;;5.70;4.40;;;;;11.90;101693.00;;;;4918278;29;20228;-72
2023/09/26 01:38:44;;;;;;;6.10;4.40;;;;;11.90;101684.00;;;;4921370;29;20229;-70
2023/09/26 01:41:32;;;;;;;6.60;3.80;;;;;11.80;101683.00;;;;4920803;29;20240;-70
2023/09/26 01:44:18;;;;;;;5.83;4.10;;;;;11.80;101690.00;;;;4921741;29;20221;-70
2023/09/26 01:47:05;;;;;;;6.70;4.00;;;;;11.80;101684.00;;;;4920148;29;20241;-70
2023/09/26 01:49:51;;;;;;;5.47;4.37;;;;;11.80;101684.00;;;;4921428;28;20851;-69
2023/09/26 01:52:37;;;;;;;7.93;4.30;;;;;11.80;101680.00;;;;4909912;29;20233;-70
2023/09/26 01:55:24;;;;;;;8.37;4.07;;;;;11.80;101682.00;;;;4915171;29;20308;-71
2023/09/26 01:58:12;;;;;;;5.27;3.93;;;;;11.80;101677.00;;;;4917019;29;20987;-72
2023/09/26 02:00:59;;;;;;;6.10;4.50;;;;;11.70;101675.00;;;;4918301;29;20237;-68
2023/09/26 02:03:45;;;;;;;6.73;4.53;;;;;11.70;101673.00;;;;4916116;29;20865;-71
2023/09/26 02:06:31;;;;;;;6.67;4.63;;;;;11.80;101677.00;;;;4921803;29;20698;-71
2023/09/26 02:09:18;;;;;;;9.93;4.67;;;;;11.70;101679.00;;;;4921089;29;20228;-71
2023/09/26 02:12:07;;;;;;;8.37;4.40;;;;;11.80;101680.00;;;;4922988;28;20228;-69
2023/09/26 02:14:54;;;;;;;10.60;4.70;;;;;11.70;101675.00;;;;4923216;29;20353;-69
2023/09/26 02:17:42;;;;;;;5.77;4.30;;;;;11.80;101672.00;;;;4924238;29;20298;-71
2023/09/26 02:20:28;;;;;;;11.00;5.17;;;;;11.70;101671.00;;;;4914169;29;20315;-67
2023/09/26 02:23:15;;;;;;;7.67;4.83;;;;;11.70;101678.00;;;;4923212;29;20806;-71
2023/09/26 02:26:01;;;;;;;9.37;5.43;;;;;11.70;101676.00;;;;4922982;28;20361;-73
2023/09/26 02:28:48;;;;;;;9.90;5.10;;;;;11.70;101672.00;;;;4925380;28;20224;-72
2023/09/26 02:31:35;;;;;;;7.87;4.53;;;;;11.70;101664.00;;;;4925877;29;20877;-68
2023/09/26 02:34:22;;;;;;;6.63;4.60;;;;;11.60;101669.00;;;;4922838;29;20232;-71
2023/09/26 02:37:09;;;;;;;9.20;5.00;;;;;11.60;101665.00;;;;4921917;29;20232;-67
2023/09/26 02:39:56;;;;;;;8.70;5.03;;;;;11.60;101659.00;;;;4918870;29;20229;-67
2023/09/26 02:42:44;;;;;;;6.63;4.40;;;;;11.60;101659.00;;;;4918565;29;20291;-70
2023/09/26 02:45:30;;;;;;;7.30;4.93;;;;;11.60;101665.00;;;;4917983;29;20248;-71
2023/09/26 02:48:18;;;;;;;8.10;5.07;;;;;11.60;101668.00;;;;4919701;29;20596;-70
2023/09/26 02:51:04;;;;;;;6.03;4.67;;;;;11.60;101662.00;;;;4914763;29;20245;-71
2023/09/26 02:53:50;;;;;;;7.00;5.23;;;;;11.60;101660.00;;;;4912059;29;20225;-68
2023/09/26 02:56:37;;;;;;;10.00;5.27;;;;;11.60;101658.00;;;;4913370;28;20232;-72
2023/09/26 02:59:23;;;;;;;8.53;5.00;;;;;11.60;101666.00;;;;4917270;28;20237;-71
2023/09/26 03:02:09;;;;;;;7.60;5.00;;;;;11.50;101659.00;;;;4918647;29;20241;-72
2023/09/26 03:04:57;;;;;;;10.03;5.53;;;;;11.50;101655.00;;;;4918442;29;20236;-70
2023/09/26 03:07:44;;;;;;;8.33;4.97;;;;;11.50;101658.00;;;;4919207;29;20305;-70
2023/09/26 03:10:31;;;;;;;6.47;4.83;;;;;11.50;101657.00;;;;4916027;29;20236;-72
2023/09/26 03:13:17;;;;;;;9.10;5.17;;;;;11.50;101651.00;;;;4916013;29;20836;-69
2023/09/26 03:16:04;;;;;;;6.77;5.13;;;;;11.50;101647.00;;;;4920931;29;20728;-70
2023/09/26 03:18:53;;;;;;;6.70;4.87;;;;;11.50;101647.00;;;;4924591;29;20231;-70
2023/09/26 03:21:41;;;;;;;9.90;5.77;;;;;11.50;101647.00;;;;4913394;29;20934;-69
2023/09/26 03:24:27;;;;;;;12.97;5.60;;;;;11.50;101645.00;;;;4921063;29;20254;-70
2023/09/26 03:27:13;;;;;;;6.63;5.13;;;;;11.50;101652.00;;;;4921822;29;20361;-70
2023/09/26 03:29:59;;;;;;;9.10;5.57;;;;;11.50;101647.00;;;;4921856;29;20702;-71
2023/09/26 03:32:46;;;;;;;7.90;5.73;;;;;11.40;101657.00;;;;4926511;29;20357;-68
2023/09/26 03:35:32;;;;;;;8.10;5.53;;;;;11.40;101655.00;;;;4913879;29;20233;-70
2023/09/26 03:38:21;;;;;;;8.17;5.67;;;;;11.40;101649.00;;;;4922330;28;20356;-69
2023/09/26 03:41:08;;;;;;;8.10;6.03;;;;;11.40;101648.00;;;;4925947;29;20240;-70
2023/09/26 03:43:54;;;;;;;9.07;5.87;;;;;11.40;101640.00;;;;4922102;29;20280;-69
2023/09/26 03:46:41;;;;;;;6.60;5.40;;;;;11.40;101638.00;;;;4927750;29;20788;-69
2023/09/26 03:49:27;;;;;;;6.63;5.50;;;;;11.30;101636.00;;;;4926959;29;20232;-69
2023/09/26 03:52:13;;;;;;;7.27;5.83;;;;;11.30;101642.00;;;;4927686;29;20264;-69
2023/09/26 03:55:02;;;;;;;14.27;5.73;;;;;11.30;101646.00;;;;4915604;29;20239;-69
2023/09/26 03:57:48;;;;;;;6.83;5.43;;;;;11.30;101632.00;;;;4921340;29;20242;-68
2023/09/26 04:00:35;;;;;;;8.73;5.97;;;;;11.30;101631.00;;;;4919062;29;20236;-71
2023/09/26 04:03:21;;;;;;;8.00;5.90;;;;;11.30;101630.00;;;;4925353;29;20232;-69
2023/09/26 04:06:09;;;;;;;8.63;5.93;;;;;11.30;101628.00;;;;4919518;29;20233;-69
2023/09/26 04:08:55;;;;;;;8.63;5.70;;;;;11.30;101620.00;;;;4918954;29;20295;-70
2023/09/26 04:11:43;;;;;;;10.37;6.10;;;;;11.30;101627.00;;;;4923577;29;20237;-72
2023/09/26 04:14:29;;;;;;;10.60;6.13;;;;;11.30;101632.00;;;;4926620;29;20232;-71
2023/09/26 04:17:16;;;;;;;11.60;6.00;;;;;11.30;101632.00;;;;4920569;29;20254;-70
2023/09/26 04:20:12;;;;;;;8.17;5.70;;;;;11.20;101629.00;;;;4909217;29;20326;-69
2023/09/26 04:23:16;;;;;;;8.33;6.33;;;;;11.20;101634.00;;;;4917742;29;20235;-71
2023/09/26 04:26:10;;;;;;;10.63;6.03;;;;;11.20;101631.00;;;;4927406;29;20236;-68
2023/09/26 04:28:57;;;;;;;11.90;7.20;;;;;11.20;101628.00;;;;4924986;29;20301;-71
2023/09/26 04:31:44;;;;;;;12.03;6.63;;;;;11.20;101629.00;;;;4927845;28;20224;-69
2023/09/26 04:34:32;;;;;;;10.97;6.60;;;;;11.20;101638.00;;;;4925448;29;20841;-71
2023/09/26 04:37:18;;;;;;;9.90;6.37;;;;;11.20;101634.00;;;;4918518;29;20241;-68
2023/09/26 04:40:09;;;;;;;9.67;6.23;;;;;11.20;101626.00;;;;4921343;29;20308;-70
2023/09/26 04:42:59;;;;;;;9.07;6.70;;;;;11.20;101622.00;;;;4927015;29;20301;-69
2023/09/26 04:45:47;;;;;;;8.63;6.40;;;;;11.20;101612.00;;;;4925473;29;20229;-69
2023/09/26 04:48:33;;;;;;;10.30;6.50;;;;;11.20;101618.00;;;;4922973;29;20778;-70
2023/09/26 04:51:20;;;;;;;13.83;7.23;;;;;11.20;101608.00;;;;4922792;29;20283;-68
2023/09/26 04:54:07;;;;;;;13.70;7.13;;;;;11.10;101606.00;;;;4925428;29;20236;-69
2023/09/26 04:56:53;;;;;;;9.57;6.63;;;;;11.10;101603.00;;;;4924796;29;20247;-70
2023/09/26 04:59:40;;;;;;;8.70;6.27;;;;;11.10;101626.00;;;;4923567;29;20485;-70
2023/09/26 05:02:28;;;;;;;8.80;6.37;;;;;11.10;101612.00;;;;4918263;29;20244;-70
2023/09/26 05:05:14;;;;;;;9.93;6.60;;;;;11.10;101617.00;;;;4923599;28;20229;-68
2023/09/26 05:08:00;;;;;;;10.10;6.37;;;;;11.10;101605.00;;;;4916923;29;20236;-70
2023/09/26 05:10:48;;;;;;;11.20;6.10;;;;;11.10;101609.00;;;;4926910;29;20717;-69
2023/09/26 05:13:34;;;;;;;8.47;6.80;;;;;11.00;101604.00;;;;4925218;29;20248;-71
2023/09/26 05:16:20;;;;;;;9.27;6.97;;;;;11.00;101598.00;;;;4924618;29;20241;-72
2023/09/26 05:19:08;;;;;;;9.03;6.27;;;;;11.00;101591.00;;;;4927100;29;20742;-68
2023/09/26 05:21:55;;;;;;;7.30;6.10;;;;;11.00;101596.00;;;;4917888;29;20742;-71
2023/09/26 05:24:41;;;;;;;9.07;6.60;;;;;11.00;101603.00;;;;4923411;29;20232;-68
2023/09/26 05:27:27;;;;;;;9.60;6.70;;;;;11.00;101606.00;;;;4917511;29;20236;-69
2023/09/26 05:30:14;;;;;;;12.40;7.03;;;;;11.00;101604.00;;;;4926586;29;20229;-70
2023/09/26 05:33:01;;;;;;;10.33;6.33;;;;;11.10;101609.00;;;;4922058;29;20233;-68
2023/09/26 05:35:48;;;;;;;9.17;7.07;;;;;11.10;101605.00;;;;4914179;29;20635;-71
2023/09/26 05:38:34;;;;;;;13.90;7.07;;;;;11.10;101613.00;;;;4916236;29;20241;-68
2023/09/26 05:41:21;;;;;;;9.20;6.80;;;;;11.10;101598.00;;;;4919104;29;20233;-68
2023/09/26 05:44:07;;;;;;;9.70;7.20;;;;;11.20;101609.00;;;;4918727;28;20232;-69
2023/09/26 05:46:53;;;;;;;9.67;7.10;;;;;11.20;101618.00;;;;4915910;29;20312;-68
2023/09/26 05:49:40;;;;;;;10.37;7.50;;;;;11.20;101622.00;;;;4915074;29;20429;-70
2023/09/26 05:52:28;;;;;;;9.60;7.07;;;;;11.30;101615.00;;;;4920291;29;20322;-70
2023/09/26 05:55:14;;;;;;;11.13;7.40;;;;;11.30;101608.00;;;;4923266;29;20220;-70
2023/09/26 05:58:00;;;;;;;13.30;7.47;;;;;11.30;101620.00;;;;4912426;29;20386;-72
2023/09/26 06:00:48;;;;;;;8.87;7.20;;;;;11.40;101621.00;;;;4922689;28;20647;-69
2023/09/26 06:03:34;;;;;;;10.67;7.30;;;;;11.40;101620.00;;;;4923512;29;20256;-69
2023/09/26 06:06:21;;;;;;;11.00;7.97;;;;;11.40;101612.00;;;;4921675;29;20229;-68
2023/09/26 06:09:09;;;;;;;8.40;7.23;;;;;11.50;101622.00;;;;4924296;29;20284;-68
2023/09/26 06:11:55;;;;;;;11.20;8.03;;;;;11.60;101623.00;;;;4923287;29;20244;-70
2023/09/26 06:14:42;;;;;;;9.63;7.57;;;;;11.60;101617.00;;;;4922583;29;21077;-69
2023/09/26 06:17:30;;;;;;;10.87;7.60;;;;;11.60;101616.00;;;;4919025;29;20241;-69
2023/09/26 06:20:16;;;;;;;10.67;7.87;;;;;11.70;101620.00;;;;4923094;28;20252;-69
2023/09/26 06:23:03;;;;;;;10.17;7.73;;;;;11.80;101614.00;;;;4918236;29;20245;-70
2023/09/26 06:25:58;;;;;;;10.70;7.87;;;;;11.80;101596.00;;;;4921790;29;20232;-72
2023/09/26 06:28:45;;;;;;;10.30;7.50;;;;;11.90;101595.00;;;;4922297;29;20249;-70
2023/09/26 06:31:31;;;;;;;11.47;7.23;;;;;11.90;101592.00;;;;4907054;29;20232;-67
2023/09/26 06:34:17;;;;;;;10.93;8.07;;;;;12.00;101596.00;;;;4918327;28;20233;-69
2023/09/26 06:37:04;;;;;;;15.07;9.30;;;;;12.10;101600.00;;;;4913725;29;20252;-69
2023/09/26 06:39:51;;;;;;;13.30;9.30;;;;;12.20;101594.00;;;;4918353;29;20249;-71
2023/09/26 06:42:41;;;;;;;12.70;9.00;;;;;12.30;101605.00;;;;4922316;29;20308;-69
2023/09/26 06:45:28;;;;;;;15.10;9.60;;;;;12.30;101601.00;;;;4917648;29;20308;-67
2023/09/26 06:48:15;;;;;;;12.53;8.97;;;;;12.40;101602.00;;;;4927683;28;20236;-69
2023/09/26 06:51:01;;;;;;;14.10;9.70;;;;;12.50;101606.00;;;;4916495;29;20294;-69
2023/09/26 06:53:48;;;;;;;14.87;10.03;;;;;12.60;101603.00;;;;4922055;29;20228;-69
2023/09/26 06:56:35;;;;;;;12.97;9.60;;;;;12.70;101607.00;;;;4921939;28;20273;-70
2023/09/26 06:59:23;;;;;;;12.60;9.90;;;;;12.80;101608.00;;;;4923055;29;20232;-70
2023/09/26 07:02:09;;;;;;;13.73;10.77;;;;;12.90;101617.00;;;;4919186;29;20285;-70
2023/09/26 07:04:56;;;;;;;15.90;9.70;;;;;13.00;101602.00;;;;4920870;29;20230;-69
2023/09/26 07:07:43;;;;;;;15.57;10.23;;;;;13.00;101608.00;;;;4925292;29;20364;-66
2023/09/26 07:10:29;;;;;;;12.90;10.27;;;;;13.10;101614.00;;;;4920805;28;20304;-68
2023/09/26 07:13:15;;;;;;;13.43;9.90;;;;;13.20;101620.00;;;;4924563;29;20224;-68
2023/09/26 07:16:23;;;;;;;14.03;9.97;;;;;13.20;101609.00;;;;4925026;29;20299;-70
2023/09/26 07:19:10;;;;;;;13.50;10.70;;;;;13.40;101608.00;;;;4923177;29;20313;-70
2023/09/26 07:21:56;;;;;;;14.50;10.83;;;;;13.50;101609.00;;;;4920963;29;20293;-69
2023/09/26 07:24:43;;;;;;;15.57;10.43;;;;;13.50;101618.00;;;;4919174;28;20236;-69
2023/09/26 07:27:33;;;;;;;13.53;10.37;;;;;13.60;101609.00;;;;4915469;29;20718;-69
2023/09/26 07:30:20;;;;;;;12.47;9.77;;;;;13.70;101616.00;;;;4923188;29;20253;-68
2023/09/26 07:33:08;;;;;;;14.20;10.37;;;;;13.80;101603.00;;;;4923262;29;20617;-70
2023/09/26 07:35:54;;;;;;;15.10;10.20;;;;;13.90;101598.00;;;;4920864;29;20316;-69
2023/09/26 07:38:41;;;;;;;14.57;10.20;;;;;14.00;101606.00;;;;4929234;28;20302;-69
2023/09/26 07:41:27;;;;;;;15.27;10.80;;;;;14.10;101603.00;;;;4914545;29;20289;-68
2023/09/26 07:44:14;;;;;;;12.43;10.67;;;;;14.10;101605.00;;;;4924429;29;20237;-70
2023/09/26 07:47:00;;;;;;;13.20;10.73;;;;;14.20;101600.00;;;;4915901;29;20233;-71
2023/09/26 07:49:47;;;;;;;11.83;9.97;;;;;14.30;101612.00;;;;4923355;29;20847;-69
2023/09/26 07:52:34;;;;;;;12.00;9.33;;;;;14.40;101604.00;;;;4912764;29;20268;-64
2023/09/26 07:55:20;;;;;;;10.90;9.23;;;;;14.50;101599.00;;;;4925152;29;20348;-67
2023/09/26 07:58:06;;;;;;;15.70;9.70;;;;;14.50;101597.00;;;;4923479;29;20382;-69
2023/09/26 08:00:53;;;;;;;13.83;9.77;;;;;14.60;101595.00;;;;4914991;29;20236;-68
2023/09/26 08:03:41;;;;;;;16.07;10.37;;;;;14.70;101604.00;;;;4923504;29;20242;-70
2023/09/26 08:06:28;;;;;;;13.70;9.73;;;;;14.80;101606.00;;;;4920505;29;20231;-68
2023/09/26 08:09:15;;;;;;;13.97;9.10;;;;;14.90;101607.00;;;;4924049;29;20232;-69
2023/09/26 08:12:01;;;;;;;12.53;9.43;;;;;15.00;101617.00;;;;4919266;29;20244;-70
2023/09/26 08:14:48;;;;;;;12.80;9.13;;;;;15.10;101614.00;;;;4920260;29;20610;-66
2023/09/26 08:17:34;;;;;;;12.63;9.37;;;;;15.10;101616.00;;;;4921912;28;20379;-70
2023/09/26 08:20:21;;;;;;;12.60;8.90;;;;;15.20;101604.00;;;;4914179;29;20721;-71
2023/09/26 08:23:08;;;;;;;12.40;8.73;;;;;15.30;101599.00;;;;4927134;29;20242;-69
2023/09/26 08:25:56;;;;;;;10.80;8.37;;;;;15.40;101608.00;;;;4920064;29;20326;-69
2023/09/26 08:28:42;;;;;;;11.40;8.90;;;;;15.50;101601.00;;;;4928245;28;20325;-70
2023/09/26 08:31:30;;;;;;;12.57;9.50;;;;;15.60;101599.00;;;;4919136;29;20724;-69
2023/09/26 08:34:17;;;;;;;11.93;8.93;;;;;15.80;101601.00;;;;4922488;29;20242;-69
2023/09/26 08:37:03;;;;;;;12.10;8.37;;;;;15.90;101603.00;;;;4910362;29;20236;-70
2023/09/26 08:39:51;;;;;;;12.10;8.80;;;;;16.10;101599.00;;;;4919644;29;20700;-70
2023/09/26 08:42:41;;;;;;;10.07;8.27;;;;;16.20;101596.00;;;;4927986;29;20236;-68
2023/09/26 08:45:27;;;;;;;9.83;8.03;;;;;16.40;101596.00;;;;4926041;29;20301;-68
2023/09/26 08:48:16;;;;;;;10.23;8.57;;;;;16.50;101604.00;;;;4926909;29;20236;-69
2023/09/26 08:51:02;;;;;;;11.07;8.17;;;;;16.60;101599.00;;;;4925397;29;20237;-69
2023/09/26 08:53:49;;;;;;;11.43;8.07;;;;;16.60;101613.00;;;;4925636;29;20268;-69
2023/09/26 08:56:37;;;;;;;12.30;7.73;;;;;16.80;101605.00;;;;4920747;29;20233;-70
2023/09/26 08:59:28;;;;;;;10.17;7.83;;;;;16.90;101595.00;;;;4923441;29;20232;-66
2023/09/26 09:02:15;;;;;;;11.67;8.07;;;;;17.10;101594.00;;;;4921959;29;20272;-70
2023/09/26 09:05:03;;;;;;;10.37;7.77;;;;;17.20;101597.00;;;;4917546;29;20236;-69
2023/09/26 09:07:50;;;;;;;15.73;12.00;;;;;17.40;101593.00;;;;4925473;29;20707;-68
2023/09/26 09:10:49;;;;;;;13.50;9.13;;;;;17.50;101585.00;;;;4921305;29;20287;-70
2023/09/26 09:13:38;;;;;;;10.13;8.20;;;;;17.60;101588.00;;;;4924147;29;20621;-70
2023/09/26 09:16:25;;;;;;;10.93;7.63;;;;;17.70;101582.00;;;;4924887;29;20285;-65
2023/09/26 09:19:11;;;;;;;9.13;6.83;;;;;17.80;101577.00;;;;4927528;29;20945;-69
2023/09/26 09:22:14;;;;;;;11.53;7.50;;;;;17.90;101575.00;;;;4917660;29;20228;-69
2023/09/26 09:25:01;;;;;;;10.40;7.00;;;;;18.10;101560.00;;;;4926129;28;20244;-69
2023/09/26 09:27:48;;;;;;;12.03;7.13;;;;;18.30;101553.00;;;;4917093;29;20245;-71
2023/09/26 09:30:39;;;;;;;11.90;7.30;;;;;18.50;101554.00;;;;4925549;29;20330;-68
2023/09/26 09:33:26;;;;;;;7.97;6.90;;;;;18.60;101554.00;;;;4926033;29;20245;-69
2023/09/26 09:36:13;;;;;;;10.03;6.60;;;;;18.80;101561.00;;;;4919381;29;20896;-70
2023/09/26 09:38:59;;;;;;;12.97;7.10;;;;;18.90;101554.00;;;;4917368;29;20293;-72
2023/09/26 09:41:48;;;;;;;11.47;6.80;;;;;19.10;101550.00;;;;4924024;29;20602;-70
2023/09/26 09:44:34;;;;;;;8.57;5.90;;;;;19.20;101545.00;;;;4913966;29;20292;-70
2023/09/26 09:47:24;;;;;;;11.13;6.60;;;;;19.30;101546.00;;;;4919218;29;20252;-68
2023/09/26 09:50:12;;;;;;;10.43;6.70;;;;;19.50;101544.00;;;;4916601;29;20231;-70
2023/09/26 09:53:03;;;;;;;9.87;6.03;;;;;19.70;101541.00;;;;4915985;29;20234;-71
2023/09/26 09:55:52;;;;;;;7.03;5.00;;;;;19.80;101539.00;;;;4918951;29;20234;-68
2023/09/26 09:58:41;;;;;;;7.17;4.60;;;;;20.10;101537.00;;;;4924449;29;20294;-69
2023/09/26 10:01:28;;;;;;;6.50;4.80;;;;;20.20;101528.00;;;;4920034;29;20253;-72
2023/09/26 10:04:17;;;;;;;7.87;5.07;;;;;20.40;101526.00;;;;4926024;29;20237;-70
2023/09/26 10:07:03;;;;;;;8.60;4.87;;;;;20.50;101519.00;;;;4920826;28;20894;-69
2023/09/26 10:09:53;;;;;;;6.50;4.70;;;;;20.60;101520.00;;;;4919479;28;20236;-70
2023/09/26 10:12:41;;;;;;;6.23;4.10;;;;;20.70;101521.00;;;;4921848;29;20307;-70
2023/09/26 10:16:06;;;;;;;7.97;4.20;;;;;20.90;101515.00;;;;4918076;29;20228;-70
2023/09/26 10:18:53;;;;;;;4.60;3.50;;;;;21.00;101525.00;;;;4925337;29;20236;-69
2023/09/26 10:21:41;;;;;;;5.93;4.20;;;;;21.30;101518.00;;;;4918548;29;20600;-70
2023/09/26 10:24:29;;;;;;;10.53;7.20;;;;;21.40;101517.00;;;;4918312;29;20241;-70
2023/09/26 10:27:24;;;;;;;4.50;3.70;;;;;21.50;101508.00;;;;4913277;29;20248;-69
2023/09/26 10:30:19;;;;;;;5.97;3.57;;;;;21.50;101515.00;;;;4922632;29;20240;-69
2023/09/26 10:33:05;;;;;;;5.77;3.37;;;;;21.70;101513.00;;;;4921923;29;20302;-69
2023/09/26 10:36:01;;;;;;;4.23;2.77;;;;;21.80;101505.00;;;;4926120;29;20312;-68
2023/09/26 10:38:59;;;;;;;4.90;2.80;;;;;21.90;101494.00;;;;4918155;29;20233;-69
2023/09/26 10:41:45;;;;;;;5.43;3.23;;;;;22.00;101500.00;;;;4932261;29;20306;-68
2023/09/26 10:44:52;;;;;;;5.43;3.17;;;;;22.10;101497.00;;;;4932541;29;20735;-65
2023/09/26 10:47:40;;;;;;;6.20;3.30;;;;;22.20;101492.00;;;;4936335;28;20232;-70
2023/09/26 10:50:29;;;;;;;9.53;6.20;;;;;22.40;101497.00;;;;4938707;29;20240;-69
2023/09/26 10:53:16;;;;;;;14.07;9.43;;;;;22.40;101494.00;;;;4940788;29;20301;-70
2023/09/26 10:56:04;;;;;;;6.50;4.47;;;;;22.60;101498.00;;;;4931731;29;20308;-68
2023/09/26 10:58:54;;;;;;;4.30;3.30;;;;;22.60;101497.00;;;;4925759;29;20236;-68
2023/09/26 11:01:40;;;;;;;3.10;2.80;;;;;22.70;101503.00;;;;4930480;29;20292;-69
2023/09/26 11:04:27;;;;;;;8.07;2.93;;;;;22.90;101503.00;;;;4917887;29;20245;-68
2023/09/26 11:07:16;;;;;;;5.00;3.13;;;;;23.00;101499.00;;;;4927352;29;20248;-67
2023/09/26 11:10:04;;;;;;;4.47;3.00;;;;;23.10;101496.00;;;;4926143;28;20380;-68
2023/09/26 11:12:52;;;;;;;5.97;3.43;;;;;23.20;101500.00;;;;4915670;29;20254;-68
2023/09/26 11:15:38;;;;;;;3.97;2.80;;;;;23.10;101503.00;;;;4921003;29;20366;-66
2023/09/26 11:18:25;;;;;;;4.03;3.07;;;;;23.20;101495.00;;;;4922040;29;20286;-67
2023/09/26 11:21:11;;;;;;;5.00;3.27;;;;;23.00;101501.00;;;;4920336;29;20271;-68
2023/09/26 11:24:21;;;;;;;3.27;2.80;;;;;23.00;101499.00;;;;4921627;28;20232;-67
2023/09/26 11:27:08;;;;;;;5.40;3.07;;;;;23.20;101497.00;;;;4919726;28;20236;-69
2023/09/26 11:29:56;;;;;;;3.20;2.80;;;;;23.50;101499.00;;;;4926428;29;20731;-68
2023/09/26 11:32:45;;;;;;;3.33;2.40;;;;;23.60;101499.00;;;;4926851;29;20233;-67
2023/09/26 11:35:32;;;;;;;3.73;2.60;;;;;24.00;101490.00;;;;4924937;28;20424;-70
2023/09/26 11:38:19;;;;;;;3.63;2.33;;;;;24.10;101487.00;;;;4929721;29;20236;-69
2023/09/26 11:41:05;;;;;;;3.73;2.63;;;;;24.00;101497.00;;;;4926523;29;20341;-68
2023/09/26 11:43:52;;;;;;;2.37;2.07;;;;;24.10;101494.00;;;;4919659;29;20731;-69
2023/09/26 11:46:46;;;;;;;3.17;2.10;;;;;24.10;101489.00;;;;4911997;29;20269;-68
2023/09/26 11:49:33;;;;;;;2.40;2.20;;;;;24.40;101491.00;;;;4925379;29;20237;-68
2023/09/26 11:52:19;;;;;;;2.60;2.40;;;;;24.40;101487.00;;;;4922962;29;20285;-65
2023/09/26 11:55:07;;;;;;;3.10;2.20;;;;;24.50;101491.00;;;;4925053;29;20320;-70
2023/09/26 11:57:54;;;;;;;3.13;2.30;;;;;24.50;101489.00;;;;4927750;28;20424;-69
2023/09/26 12:00:40;;;;;;;3.78;2.25;;;;;24.70;101481.00;;;;4914043;29;20354;-69
2023/09/26 12:03:28;;;;;;;5.82;2.30;;;;;24.70;101481.00;;;;4927563;29;20233;-70
2023/09/26 12:06:15;;;;;;;2.72;2.10;;;;;24.60;101473.00;;;;4925932;29;20233;-69
2023/09/26 12:09:03;;;;;;;3.15;2.20;;;;;24.70;101480.00;;;;4917505;28;20369;-68
2023/09/26 12:11:51;;;;;;;3.63;2.10;;;;;24.70;101465.00;;;;4922898;29;20285;-67
2023/09/26 12:14:38;;;;;;;3.50;2.47;;;;;24.80;101463.00;;;;4912739;29;20237;-68
2023/09/26 12:17:26;;;;;;;2.30;2.00;;;;;25.00;101480.00;;;;4919227;29;20244;-69
2023/09/26 12:20:18;;;;;;;3.17;2.17;;;;;25.10;101483.00;;;;4923646;29;20232;-69
2023/09/26 12:23:05;;;;;;;2.75;2.45;;;;;25.00;101485.00;;;;4928189;29;20320;-69
2023/09/26 12:25:51;;;;;;;4.15;2.22;;;;;25.10;101487.00;;;;4919519;29;20237;-69
2023/09/26 12:28:37;;;;;;;2.22;2.00;;;;;25.20;101480.00;;;;4911171;29;20362;-69
2023/09/26 12:31:24;;;;;;;3.67;2.08;;;;;25.30;101487.00;;;;4910548;29;20232;-70
2023/09/26 12:34:13;;;;;;;2.47;2.10;;;;;25.20;101483.00;;;;4910659;29;20609;-68
2023/09/26 12:37:01;;;;;;;5.13;2.28;;;;;25.30;101478.00;;;;4923249;29;20312;-68
2023/09/26 12:39:47;;;;;;;2.83;2.30;;;;;25.30;101474.00;;;;4926590;29;20232;-70
2023/09/26 12:42:33;;;;;;;4.57;2.50;;;;;25.20;101467.00;;;;4916250;29;20253;-68
2023/09/26 12:45:20;;;;;;;3.20;2.17;;;;;25.10;101476.00;;;;4925518;29;20293;-67
2023/09/26 12:48:06;;;;;;;3.55;2.30;;;;;25.30;101487.00;;;;4919922;29;20236;-69
2023/09/26 12:50:53;;;;;;;4.00;2.28;;;;;25.50;101490.00;;;;4923140;29;20237;-69
2023/09/26 12:53:41;;;;;;;2.83;2.20;;;;;25.40;101486.00;;;;4923561;29;20240;-71
2023/09/26 12:56:27;;;;;;;2.38;2.17;;;;;25.40;101485.00;;;;4913514;29;20601;-69
2023/09/26 12:59:13;;;;;;;2.33;2.13;;;;;25.80;101481.00;;;;4924946;29;20237;-69
2023/09/26 13:02:00;;;;;;;2.35;2.05;;;;;25.80;101473.00;;;;4917274;29;20273;-68
2023/09/26 13:04:46;;;;;;;2.38;2.08;;;;;25.70;101478.00;;;;4920866;29;20236;-64
2023/09/26 13:07:33;;;;;;;4.15;2.03;;;;;25.70;101480.00;;;;4921037;29;20244;-70
2023/09/26 13:10:21;;;;;;;3.78;2.25;;;;;25.80;101474.00;;;;4925843;29;20240;-70
2023/09/26 13:13:07;;;;;;;2.40;2.20;;;;;25.90;101473.00;;;;4909766;28;20237;-69
2023/09/26 13:15:53;;;;;;;2.33;2.08;;;;;25.90;101467.00;;;;4919114;28;20292;-69
2023/09/26 13:18:40;;;;;;;2.70;2.28;;;;;26.10;101463.00;;;;4922089;29;20364;-66
2023/09/26 13:21:26;;;;;;;2.97;2.17;;;;;26.10;101467.00;;;;4913510;29;20256;-69
2023/09/26 13:24:14;;;;;;;3.83;2.30;;;;;25.80;101462.00;;;;4919286;28;20249;-70
2023/09/26 13:27:03;;;;;;;4.05;2.10;;;;;25.70;101467.00;;;;4921446;29;20237;-70
2023/09/26 13:29:49;;;;;;;2.50;2.05;;;;;25.50;101462.00;;;;4918583;29;20282;-69
2023/09/26 13:32:35;;;;;;;2.97;2.35;;;;;25.30;101468.00;;;;4924479;29;20773;-66
2023/09/26 13:35:23;;;;;;;7.95;2.55;;;;;25.30;101470.00;;;;4921315;29;20641;-70
2023/09/26 13:38:10;;;;;;;3.45;2.28;;;;;25.50;101467.00;;;;4918188;29;20233;-70
2023/09/26 13:40:56;;;;;;;3.67;2.35;;;;;25.70;101459.00;;;;4921905;29;20605;-69
2023/09/26 13:43:44;;;;;;;3.33;2.25;;;;;25.60;101456.00;;;;4920322;29;20228;-69